This is the latest recevied weather packets stored in our database for station/object KF0FSA. If no packets are shown the sender has not sent any weather packets the latest 10 day(s).
| Time | Temp. | Humidity | Pressure | Rain* | Wind** | Luminosity | Snow |
|---|---|---|---|---|---|---|---|
| 1777500213 | 13.33° C | 41% | 963.5 hPa | 0 mm | - | 166 W/m² | - |
| 1777499790 | 13.89° C | 41% | 963.4 hPa | 0 mm | - | 217 W/m² | - |
| 1777499189 | 14.44° C | 39% | 963.4 hPa | 0 mm | - | 251 W/m² | - |
| 1777498286 | 15.56° C | 36% | 963.3 hPa | 0 mm | - | 664 W/m² | - |
| 1777496608 | 14.44° C | 36% | 963.7 hPa | 0 mm | - | 693 W/m² | - |
| 1777494984 | 13.33° C | 39% | 964.3 hPa | 0 mm | - | 285 W/m² | - |
| 1777494208 | 13.33° C | 38% | 964.3 hPa | 0 mm | - | 550 W/m² | - |
| 1777493782 | 12.78° C | 39% | 964.4 hPa | 0 mm | - | 603 W/m² | - |
| 1777490900 | 15° C | 41% | 964.6 hPa | 0 mm | - | 846 W/m² | - |
| 1777490475 | 15° C | 41% | 964.6 hPa | 0 mm | - | 910 W/m² | - |
| 1777490176 | 15° C | 43% | 964.7 hPa | 0 mm | - | 895 W/m² | - |
| 1777489401 | 15° C | 35% | 964.6 hPa | 0 mm | - | 932 W/m² | - |
| 1777486695 | 13.89° C | 43% | 965.4 hPa | 0 mm | - | 748 W/m² | - |
| 1777485072 | 13.33° C | 45% | 965.7 hPa | 0 mm | - | 457 W/m² | - |
| 1777483869 | 12.78° C | 37% | 965.8 hPa | 0 mm | - | 477 W/m² | - |
| 1777483090 | 12.78° C | 38% | 965.9 hPa | 0 mm | - | 424 W/m² | - |
| 1777482363 | 12.78° C | 36% | 965.9 hPa | 0 mm | - | 662 W/m² | - |
| 1777481761 | 12.78° C | 39% | 965.9 hPa | 0 mm | - | 737 W/m² | - |
| 1777480260 | 12.22° C | 43% | 965.9 hPa | 0 mm | - | 481 W/m² | - |
| 1777479960 | 12.22° C | 41% | 966.1 hPa | 0 mm | - | 541 W/m² | - |
| 1777478761 | 11.67° C | 43% | 966 hPa | 0 mm | - | 787 W/m² | - |
| 1777477562 | 11.67° C | 47% | 966 hPa | 0 mm | - | 783 W/m² | - |
| 1777476961 | 11.11° C | 50% | 965.9 hPa | 0 mm | - | 817 W/m² | - |
| 1777476660 | 11.11° C | 51% | 965.9 hPa | 0 mm | - | 754 W/m² | - |
| 1777473958 | 9.44° C | 66% | 966.1 hPa | 0 mm | - | 537 W/m² | - |
* Rain latest hour (hover to see other rain measurements)
** Current wind speed in m/s (hover to see current wind gust speed)